createdAt,value
2018-04-13T00:01:48.412Z,11.67
2018-04-13T00:04:16.127Z,11.27
2018-04-13T00:06:47.838Z,11.63
2018-04-13T00:09:15.545Z,11.23
2018-04-13T00:11:44.221Z,10.57
2018-04-13T00:14:11.942Z,11.30
2018-04-13T00:16:42.657Z,10.57
2018-04-13T00:19:10.374Z,11.17
2018-04-13T00:21:39.634Z,10.60
2018-04-13T00:24:07.754Z,10.60
2018-04-13T00:26:41.400Z,11.97
2018-04-13T00:29:09.111Z,14.07
2018-04-13T00:34:33.884Z,13.07
2018-04-13T00:37:01.979Z,12.80
2018-04-13T00:39:31.654Z,13.70
2018-04-13T00:41:59.333Z,14.33
2018-04-13T00:44:28.124Z,13.77
2018-04-13T00:46:55.790Z,13.57
2018-04-13T00:49:36.020Z,14.17
2018-04-13T00:52:04.076Z,13.07
2018-04-13T00:54:42.868Z,13.70
2018-04-13T00:57:11.312Z,12.73
2018-04-13T00:59:48.244Z,12.37
2018-04-13T01:02:15.958Z,11.80
2018-04-13T01:04:45.048Z,13.57
2018-04-13T01:07:13.771Z,14.33
2018-04-13T01:09:41.832Z,14.33
2018-04-13T01:12:10.261Z,14.70
2018-04-13T01:14:38.787Z,14.70
2018-04-13T01:20:05.051Z,14.37
2018-04-13T01:22:33.467Z,14.00
2018-04-13T01:25:03.125Z,15.23
2018-04-13T01:27:31.223Z,14.90
2018-04-13T01:29:59.405Z,15.47
2018-04-13T01:32:27.860Z,16.07
2018-04-13T01:34:59.638Z,16.13
2018-04-13T01:37:27.285Z,15.53
2018-04-13T01:39:55.751Z,15.70
2018-04-13T01:42:24.634Z,18.30
2018-04-13T01:44:53.307Z,17.23
2018-04-13T01:47:20.984Z,19.77
2018-04-13T01:49:51.146Z,19.47
2018-04-13T01:52:19.617Z,20.40
2018-04-13T01:54:47.355Z,22.20
2018-04-13T01:57:15.769Z,20.53
2018-04-13T02:00:01.341Z,18.20
2018-04-13T02:02:29.390Z,20.27
2018-04-13T02:05:04.101Z,20.50
2018-04-13T02:07:32.539Z,19.93
2018-04-13T02:10:00.299Z,18.13
2018-04-13T02:12:28.730Z,18.60
2018-04-13T02:15:02.199Z,19.60
2018-04-13T02:17:30.423Z,18.27
2018-04-13T02:20:08.680Z,20.23
2018-04-13T02:22:36.840Z,18.80
2018-04-13T02:25:26.319Z,19.53
2018-04-13T02:27:54.037Z,20.33
2018-04-13T02:30:29.776Z,17.50
2018-04-13T02:32:58.260Z,19.40
2018-04-13T02:35:34.789Z,19.90
2018-04-13T02:38:02.508Z,17.83
2018-04-13T02:40:39.308Z,17.30
2018-04-13T02:43:07.022Z,19.20
2018-04-13T02:45:36.498Z,16.40
2018-04-13T02:48:04.192Z,15.93
2018-04-13T02:50:32.878Z,16.70
2018-04-13T02:53:00.989Z,18.83
2018-04-13T02:55:29.124Z,19.00
2018-04-13T02:57:57.579Z,16.13
2018-04-13T03:00:29.186Z,16.03
2018-04-13T03:02:56.888Z,17.00
2018-04-13T03:05:26.589Z,17.80
2018-04-13T03:07:55.050Z,19.20
2018-04-13T03:10:24.488Z,20.17
2018-04-13T03:12:52.632Z,20.13
2018-04-13T03:15:21.098Z,19.87
2018-04-13T03:17:49.222Z,20.97
2018-04-13T03:20:16.899Z,20.93
2018-04-13T03:22:44.546Z,21.63
2018-04-13T03:25:17.020Z,21.27
2018-04-13T03:27:44.813Z,20.50
2018-04-13T03:30:16.757Z,21.73
2018-04-13T03:32:45.245Z,19.97
2018-04-13T03:35:15.686Z,21.43
2018-04-13T03:37:43.813Z,22.43
2018-04-13T03:40:16.280Z,21.90
2018-04-13T03:42:44.005Z,22.97
2018-04-13T03:45:12.664Z,19.20
2018-04-13T03:47:41.111Z,23.27
2018-04-13T03:50:09.922Z,22.37
2018-04-13T03:52:37.718Z,21.10
2018-04-13T03:55:05.800Z,23.23
2018-04-13T03:57:33.866Z,23.00
2018-04-13T04:00:06.974Z,23.33
2018-04-13T04:02:35.461Z,23.77
2018-04-13T04:05:03.183Z,24.43
2018-04-13T04:07:31.655Z,23.67
2018-04-13T04:09:59.797Z,21.40
2018-04-13T04:12:27.494Z,21.53
2018-04-13T04:14:56.352Z,19.90
2018-04-13T04:17:24.014Z,20.27
2018-04-13T04:20:04.961Z,20.20
2018-04-13T04:25:39.195Z,21.23
2018-04-13T04:28:07.316Z,20.87
2018-04-13T04:30:49.978Z,21.77
2018-04-13T04:33:18.553Z,21.03
2018-04-13T04:36:02.802Z,22.13
2018-04-13T04:38:30.505Z,23.40
2018-04-13T04:41:08.672Z,23.03
2018-04-13T04:43:37.278Z,22.67
2018-04-13T04:46:08.853Z,22.73
2018-04-13T04:48:37.486Z,22.63
2018-04-13T04:51:26.614Z,23.07
2018-04-13T04:53:54.447Z,23.93
2018-04-13T04:56:26.365Z,23.77
2018-04-13T04:58:54.903Z,23.53
2018-04-13T05:01:23.686Z,23.43
2018-04-13T05:03:51.391Z,24.67
2018-04-13T05:06:19.891Z,25.33
2018-04-13T05:08:47.551Z,24.27
2018-04-13T05:11:24.316Z,24.80
2018-04-13T05:13:52.814Z,20.43
2018-04-13T05:16:30.510Z,21.90
2018-04-13T05:18:58.591Z,23.20
2018-04-13T05:21:28.118Z,22.10
2018-04-13T05:23:55.898Z,23.10
2018-04-13T05:26:29.506Z,20.63
2018-04-13T05:28:57.155Z,19.73
2018-04-13T05:31:44.877Z,19.37
2018-04-13T05:34:12.663Z,20.87
2018-04-13T05:36:46.178Z,17.93
2018-04-13T05:39:14.771Z,19.83
2018-04-13T05:41:45.283Z,15.70
2018-04-13T05:44:12.932Z,19.13
2018-04-13T05:49:46.787Z,18.27
2018-04-13T05:52:15.234Z,17.50
2018-04-13T05:54:59.542Z,16.97
2018-04-13T05:57:27.659Z,19.97
2018-04-13T05:59:58.818Z,20.23
2018-04-13T06:02:26.524Z,18.80
2018-04-13T06:10:45.759Z,20.00
2018-04-13T06:13:14.836Z,18.67
2018-04-13T06:15:53.944Z,21.33
2018-04-13T06:18:21.690Z,20.90
2018-04-13T06:23:42.908Z,16.77
2018-04-13T06:26:10.673Z,16.43
2018-04-13T06:29:02.214Z,19.67
2018-04-13T06:31:29.954Z,19.13
2018-04-13T06:33:59.444Z,19.07
2018-04-13T06:36:27.208Z,18.23
2018-04-13T06:38:55.907Z,14.83
2018-04-13T06:41:23.651Z,16.80
2018-04-13T06:43:57.076Z,14.83
2018-04-13T06:46:25.198Z,15.03
2018-04-13T06:49:09.732Z,15.90
2018-04-13T06:51:38.277Z,15.93
2018-04-13T06:57:12.208Z,15.97
2018-04-13T06:59:39.955Z,15.80
2018-04-13T07:02:28.583Z,16.53
2018-04-13T07:04:56.246Z,16.13
2018-04-13T07:07:31.739Z,17.47
2018-04-13T07:10:00.212Z,17.77
2018-04-13T07:15:23.260Z,18.57
2018-04-13T07:17:51.481Z,18.70
2018-04-13T07:20:19.169Z,18.47
2018-04-13T07:22:46.890Z,18.53
2018-04-13T07:25:37.609Z,18.93
2018-04-13T07:28:06.095Z,19.67
2018-04-13T07:30:38.267Z,19.60
2018-04-13T07:33:06.410Z,22.23
2018-04-13T07:35:42.179Z,22.80
2018-04-13T07:38:09.337Z,24.17
2018-04-13T07:40:45.498Z,24.93
2018-04-13T07:43:14.115Z,25.43
2018-04-13T07:45:44.615Z,25.27
2018-04-13T07:48:12.343Z,24.17
2018-04-13T07:50:46.554Z,23.43
2018-04-13T07:53:14.273Z,23.93
2018-04-13T07:55:42.345Z,22.60
2018-04-13T07:58:10.029Z,22.83
2018-04-13T08:00:48.096Z,23.07
2018-04-13T08:03:16.514Z,22.23
2018-04-13T08:11:48.165Z,22.43
2018-04-13T08:14:15.877Z,23.80
2018-04-13T08:16:58.557Z,22.80
2018-04-13T08:19:26.235Z,24.03
2018-04-13T08:27:57.581Z,25.17
2018-04-13T08:30:26.058Z,23.70
2018-04-13T08:33:01.638Z,24.97
2018-04-13T08:35:29.302Z,23.83
2018-04-13T08:38:02.946Z,24.90
2018-04-13T08:40:30.691Z,25.57
2018-04-13T08:43:11.461Z,26.57
2018-04-13T08:45:39.181Z,27.10
2018-04-13T08:51:04.437Z,26.83
2018-04-13T08:53:32.101Z,27.43
2018-04-13T08:56:01.842Z,27.73
2018-04-13T08:58:29.675Z,27.13
2018-04-13T09:01:11.787Z,26.73
2018-04-13T09:03:39.537Z,27.47
2018-04-13T09:06:11.296Z,28.20
2018-04-13T09:08:39.002Z,28.33
2018-04-13T09:11:11.599Z,29.53
2018-04-13T09:13:39.283Z,27.87
2018-04-13T09:19:15.184Z,27.47
2018-04-13T09:21:43.669Z,27.60
2018-04-13T09:27:04.977Z,28.73
2018-04-13T09:29:32.661Z,29.77
2018-04-13T09:32:11.477Z,28.53
2018-04-13T09:34:39.274Z,28.83
2018-04-13T09:37:13.917Z,27.83
2018-04-13T09:39:43.041Z,28.17
2018-04-13T09:42:24.301Z,26.13
2018-04-13T09:44:52.140Z,27.77
2018-04-13T09:47:32.265Z,26.00
2018-04-13T09:49:59.952Z,28.13
2018-04-13T09:52:50.994Z,27.83
2018-04-13T09:55:18.645Z,24.43
2018-04-13T09:57:50.429Z,27.80
2018-04-13T10:00:23.750Z,30.33
2018-04-13T10:02:58.100Z,30.03
2018-04-13T10:05:40.131Z,33.37
2018-04-13T10:08:08.371Z,33.90
2018-04-13T10:16:22.457Z,40.57
2018-04-13T10:18:51.037Z,41.03
2018-04-13T10:21:37.905Z,42.60
2018-04-13T10:24:05.606Z,45.33
2018-04-13T10:26:41.690Z,44.77
2018-04-13T10:29:09.401Z,43.60
2018-04-13T10:31:37.627Z,43.87
2018-04-13T10:34:05.282Z,41.50
2018-04-13T10:36:46.637Z,43.60
2018-04-13T10:39:14.309Z,44.43
2018-04-13T10:41:56.756Z,46.10
2018-04-13T10:44:24.500Z,48.97
2018-04-13T10:47:10.193Z,49.27
2018-04-13T10:49:37.944Z,51.67
2018-04-13T10:52:06.046Z,52.63
2018-04-13T10:54:33.956Z,53.83
2018-04-13T10:57:15.159Z,54.40
2018-04-13T10:59:43.679Z,54.90
2018-04-13T11:02:26.589Z,55.97
2018-04-13T11:04:54.394Z,57.93
2018-04-13T11:07:23.070Z,60.37
2018-04-13T11:09:50.797Z,60.03
2018-04-13T11:12:18.516Z,60.10
2018-04-13T11:14:46.252Z,62.00
2018-04-13T11:17:13.951Z,63.63
2018-04-13T11:19:42.088Z,62.13
2018-04-13T11:22:09.835Z,61.33
2018-04-13T11:24:37.555Z,59.03
2018-04-13T11:27:16.860Z,60.60
2018-04-13T11:29:44.528Z,59.40
2018-04-13T11:32:19.960Z,59.37
2018-04-13T11:34:48.077Z,60.13
2018-04-13T11:43:09.060Z,50.63
2018-04-13T11:45:36.788Z,53.40
2018-04-13T11:48:15.223Z,48.37
2018-04-13T11:50:42.906Z,48.37
2018-04-13T11:53:18.410Z,50.40
2018-04-13T11:55:46.947Z,58.00
2018-04-13T11:58:25.160Z,58.00
2018-04-13T12:00:52.969Z,60.60
2018-04-13T12:03:28.478Z,57.07
2018-04-13T12:05:56.216Z,58.40
2018-04-13T12:11:30.211Z,55.30
2018-04-13T12:13:58.346Z,50.10
2018-04-13T12:16:31.064Z,47.37
2018-04-13T12:18:58.796Z,41.10
2018-04-13T12:21:34.337Z,43.93
2018-04-13T12:24:02.373Z,45.87
2018-04-13T12:26:34.656Z,49.87
2018-04-13T12:29:02.386Z,53.17
2018-04-13T12:31:34.052Z,53.97
2018-04-13T12:34:01.773Z,51.07
2018-04-13T12:36:31.229Z,51.60
2018-04-13T12:38:59.648Z,51.27
2018-04-13T12:41:27.320Z,48.33
2018-04-13T12:43:56.613Z,50.27
2018-04-13T12:46:34.601Z,44.77
2018-04-13T12:49:02.413Z,47.07
2018-04-13T12:51:34.321Z,46.57
2018-04-13T12:54:02.146Z,46.97
2018-04-13T12:56:29.966Z,43.70
2018-04-13T12:58:58.041Z,44.87
2018-04-13T13:01:42.503Z,44.50
2018-04-13T13:04:10.306Z,38.53
2018-04-13T13:06:51.168Z,39.00
2018-04-13T13:09:18.872Z,38.60
2018-04-13T13:12:04.586Z,37.03
2018-04-13T13:14:32.233Z,34.47
2018-04-13T13:17:01.472Z,37.03
2018-04-13T13:19:29.948Z,40.50
2018-04-13T13:22:05.278Z,41.67
2018-04-13T13:24:34.489Z,40.47
2018-04-13T13:27:02.250Z,40.80
2018-04-13T13:29:29.949Z,38.87
2018-04-13T13:32:03.549Z,36.63
2018-04-13T13:34:31.572Z,37.60
2018-04-13T13:37:01.086Z,37.73
2018-04-13T13:39:29.131Z,38.60
2018-04-13T13:41:56.869Z,33.27
2018-04-13T13:44:24.538Z,37.03
2018-04-13T13:46:55.741Z,34.20
2018-04-13T13:49:23.854Z,34.33
2018-04-13T13:51:56.993Z,34.10
2018-04-13T13:54:24.705Z,34.77
2018-04-13T13:56:57.148Z,35.40
2018-04-13T13:59:24.834Z,37.30
2018-04-13T14:02:00.537Z,38.03
2018-04-13T14:04:28.998Z,38.13
2018-04-13T14:07:02.841Z,40.67
2018-04-13T14:09:30.486Z,40.40
2018-04-13T14:12:03.442Z,39.00
2018-04-13T14:14:31.202Z,39.40
2018-04-13T14:17:04.258Z,40.10
2018-04-13T14:19:31.999Z,42.00
2018-04-13T14:22:03.577Z,38.93
2018-04-13T14:24:32.201Z,40.63
2018-04-13T14:27:07.686Z,39.37
2018-04-13T14:29:35.395Z,39.03
2018-04-13T14:34:58.713Z,38.33
2018-04-13T14:37:27.238Z,37.07
2018-04-13T14:39:58.230Z,35.10
2018-04-13T14:42:26.734Z,36.80
2018-04-13T14:44:57.831Z,36.83
2018-04-13T14:47:26.309Z,40.27
2018-04-13T14:49:54.120Z,40.80
2018-04-13T14:52:21.888Z,39.67
2018-04-13T14:54:49.767Z,41.20
2018-04-13T14:57:17.725Z,38.77
2018-04-13T14:59:46.281Z,42.33
2018-04-13T15:02:14.072Z,42.50
2018-04-13T15:04:42.115Z,43.50
2018-04-13T15:07:20.896Z,43.40
2018-04-13T15:09:48.905Z,42.47
2018-04-13T15:12:21.114Z,43.70
2018-04-13T15:14:49.595Z,40.50
2018-04-13T15:17:40.766Z,39.87
2018-04-13T15:20:08.499Z,38.67
2018-04-13T15:22:37.867Z,40.73
2018-04-13T15:25:05.632Z,35.93
2018-04-13T15:27:45.440Z,36.00
2018-04-13T15:30:14.734Z,33.67
2018-04-13T15:32:45.275Z,31.70
2018-04-13T15:35:13.413Z,32.13
2018-04-13T15:37:46.948Z,33.27
2018-04-13T15:40:15.498Z,31.03
2018-04-13T15:42:59.992Z,31.87
2018-04-13T15:45:27.768Z,33.03
2018-04-13T15:47:59.010Z,33.93
2018-04-13T15:50:26.770Z,34.00
2018-04-13T15:53:07.848Z,38.43
2018-04-13T15:55:35.952Z,36.47
2018-04-13T15:58:05.379Z,35.97
2018-04-13T16:00:33.144Z,35.87
2018-04-13T16:03:12.756Z,35.10
2018-04-13T16:05:40.866Z,40.73
2018-04-13T16:08:26.408Z,31.43
2018-04-13T16:10:54.125Z,26.27
2018-04-13T16:13:24.751Z,21.30
2018-04-13T16:15:53.244Z,24.27
2018-04-13T16:18:30.293Z,22.63
2018-04-13T16:20:58.812Z,24.23
2018-04-13T16:26:23.806Z,21.77
2018-04-13T16:28:51.556Z,22.63
2018-04-13T16:31:28.833Z,22.20
2018-04-13T16:33:57.917Z,20.37
2018-04-13T16:36:28.037Z,21.87
2018-04-13T16:38:55.747Z,20.00
2018-04-13T16:41:36.369Z,27.70
2018-04-13T16:44:04.918Z,19.73
2018-04-13T16:46:32.634Z,30.03
2018-04-13T16:49:01.176Z,18.57
2018-04-13T16:51:29.878Z,15.97
2018-04-13T16:53:58.334Z,16.83
2018-04-13T16:56:36.365Z,17.93
2018-04-13T16:59:04.069Z,17.00
2018-04-13T17:01:33.264Z,19.13
2018-04-13T17:04:01.404Z,15.60
2018-04-13T17:06:31.163Z,17.23
2018-04-13T17:08:59.238Z,13.17
2018-04-13T17:11:31.441Z,12.80
2018-04-13T17:13:59.975Z,13.33
2018-04-13T17:16:34.089Z,13.00
2018-04-13T17:19:03.017Z,12.90
2018-04-13T17:21:33.768Z,13.93
2018-04-13T17:24:02.364Z,14.00
2018-04-13T17:26:30.242Z,12.73
2018-04-13T17:28:57.984Z,13.17
2018-04-13T17:31:26.369Z,13.23
2018-04-13T17:33:54.185Z,14.13
2018-04-13T17:36:29.632Z,15.23
2018-04-13T17:38:57.360Z,15.73
2018-04-13T17:41:26.033Z,15.20
2018-04-13T17:43:53.723Z,15.50
2018-04-13T17:46:24.058Z,16.43
2018-04-13T17:48:52.545Z,16.20
2018-04-13T17:51:25.026Z,15.50
2018-04-13T17:53:52.750Z,15.40
2018-04-13T17:56:43.786Z,17.50
2018-04-13T17:59:11.460Z,15.67
2018-04-13T18:01:43.974Z,16.90
2018-04-13T18:04:12.428Z,17.00
2018-04-13T18:06:41.308Z,16.23
2018-04-13T18:09:09.035Z,20.17
2018-04-13T18:11:43.677Z,19.30
2018-04-13T18:14:12.513Z,17.77
2018-04-13T18:16:40.250Z,18.67
2018-04-13T18:19:08.719Z,20.77
2018-04-13T18:21:58.501Z,17.17
2018-04-13T18:24:26.214Z,20.33
2018-04-13T18:27:04.696Z,16.90
2018-04-13T18:29:33.492Z,16.77
2018-04-13T18:32:02.008Z,15.80
2018-04-13T18:34:30.136Z,13.10
2018-04-13T18:37:21.052Z,24.93
2018-04-13T18:39:49.139Z,15.40
2018-04-13T18:42:17.379Z,13.47
2018-04-13T18:44:45.511Z,12.37
2018-04-13T18:47:23.736Z,12.27
2018-04-13T18:49:51.827Z,13.03
2018-04-13T18:52:20.542Z,13.53
2018-04-13T18:54:49.042Z,12.80
2018-04-13T18:57:23.685Z,13.83
2018-04-13T18:59:51.407Z,13.40
2018-04-13T19:02:22.604Z,14.40
2018-04-13T19:04:51.226Z,16.37
2018-04-13T19:07:26.972Z,11.87
2018-04-13T19:09:55.485Z,12.87
2018-04-13T19:12:24.029Z,14.20
2018-04-13T19:14:51.752Z,12.90
2018-04-13T19:17:28.297Z,14.80
2018-04-13T19:19:56.727Z,14.37
2018-04-13T19:22:47.007Z,14.87
2018-04-13T19:25:15.458Z,15.83
2018-04-13T19:28:06.385Z,16.50
2018-04-13T19:30:35.198Z,18.30
2018-04-13T19:33:03.921Z,19.17
2018-04-13T19:35:31.569Z,20.03
2018-04-13T19:38:14.419Z,20.07
2018-04-13T19:40:42.584Z,19.77
2018-04-13T19:43:12.017Z,22.17
2018-04-13T19:45:41.258Z,22.83
2018-04-13T19:51:15.350Z,23.57
2018-04-13T19:53:43.090Z,23.80
2018-04-13T19:56:18.049Z,25.70
2018-04-13T19:58:46.470Z,24.80
2018-04-13T20:01:33.463Z,25.90
2018-04-13T20:04:01.167Z,27.73
2018-04-13T20:06:35.725Z,28.63
2018-04-13T20:09:03.592Z,26.97
2018-04-13T20:11:48.953Z,30.67
2018-04-13T20:17:01.891Z,32.50
2018-04-13T20:19:35.732Z,33.80
2018-04-13T20:22:04.286Z,36.27
2018-04-13T20:24:35.542Z,35.47
2018-04-13T20:27:04.137Z,41.43
2018-04-13T20:29:38.365Z,41.90
2018-04-13T20:32:06.503Z,47.77
2018-04-13T20:34:34.562Z,42.67
2018-04-13T20:37:02.589Z,48.50
2018-04-13T20:39:31.152Z,45.43
2018-04-13T20:41:59.221Z,49.47
2018-04-13T20:44:29.840Z,52.73
2018-04-13T20:46:58.348Z,57.47
2018-04-13T20:49:31.373Z,55.23
2018-04-13T20:51:59.503Z,57.83
2018-04-13T20:54:31.892Z,60.20
2018-04-13T20:57:01.148Z,57.93
2018-04-13T20:59:32.321Z,58.90
2018-04-13T21:02:00.806Z,60.50
2018-04-13T21:04:29.495Z,60.27
2018-04-13T21:06:57.581Z,57.37
2018-04-13T21:09:27.679Z,60.33
2018-04-13T21:11:55.414Z,61.27
2018-04-13T21:14:24.134Z,62.60
2018-04-13T21:16:51.842Z,66.93
2018-04-13T21:19:20.591Z,69.30
2018-04-13T21:21:49.885Z,70.47
2018-04-13T21:24:19.311Z,69.53
2018-04-13T21:26:47.457Z,69.50
2018-04-13T21:29:19.613Z,67.80
2018-04-13T21:31:48.365Z,70.93
2018-04-13T21:34:28.672Z,75.60
2018-04-13T21:36:56.520Z,73.83
2018-04-13T21:39:27.109Z,72.30
2018-04-13T21:41:56.568Z,75.43
2018-04-13T21:44:28.474Z,80.70
2018-04-13T21:46:56.213Z,77.07
2018-04-13T21:49:39.428Z,76.73
2018-04-13T21:52:07.679Z,80.03
2018-04-13T21:54:50.030Z,79.90
2018-04-13T21:57:17.782Z,77.87
2018-04-13T21:59:47.260Z,72.80
2018-04-13T22:02:15.739Z,75.07
2018-04-13T22:04:43.467Z,77.57
2018-04-13T22:07:12.660Z,74.63
2018-04-13T22:09:40.398Z,75.20
2018-04-13T22:12:29.508Z,79.60
2018-04-13T22:14:57.215Z,76.70
2018-04-13T22:17:34.672Z,76.63
2018-04-13T22:20:03.192Z,74.33
2018-04-13T22:22:42.212Z,67.70
2018-04-13T22:25:09.958Z,62.53
2018-04-13T22:27:44.261Z,55.83
2018-04-13T22:30:12.742Z,51.40
2018-04-13T22:32:51.144Z,50.93
2018-04-13T22:35:19.310Z,47.80
2018-04-13T22:37:57.732Z,46.17
2018-04-13T22:40:26.205Z,47.43
2018-04-13T22:43:07.356Z,49.13
2018-04-13T22:45:35.891Z,46.50
2018-04-13T22:48:09.294Z,47.70
2018-04-13T22:50:37.078Z,46.67
2018-04-13T22:53:06.355Z,46.93
2018-04-13T22:55:34.068Z,45.93
2018-04-13T22:58:18.524Z,44.13
2018-04-13T23:00:46.607Z,45.70
2018-04-13T23:03:15.359Z,43.10
2018-04-13T23:05:43.837Z,44.57
2018-04-13T23:08:19.886Z,45.50
2018-04-13T23:10:47.633Z,44.50
2018-04-13T23:13:17.574Z,44.73
2018-04-13T23:15:46.596Z,42.27
2018-04-13T23:21:13.989Z,44.70
2018-04-13T23:23:42.977Z,45.53
2018-04-13T23:26:10.657Z,44.63
2018-04-13T23:28:39.104Z,42.90
2018-04-13T23:31:13.800Z,44.50
2018-04-13T23:33:41.545Z,44.47
2018-04-13T23:36:12.707Z,44.37
2018-04-13T23:38:40.382Z,48.50
2018-04-13T23:41:14.951Z,46.03
2018-04-13T23:43:43.002Z,48.10
2018-04-13T23:46:14.612Z,48.73
2018-04-13T23:48:43.071Z,47.37
2018-04-13T23:51:11.226Z,44.87
2018-04-13T23:53:39.706Z,43.07
2018-04-13T23:56:08.392Z,40.30
2018-04-13T23:58:36.107Z,43.50
